Time;durP1;ratioP1;P1;durP2;ratioP2;P2;SDS_P1;SDS_P2;PMS_P1;PMS_P2;Temp;Humidity;BMP_temperature;BMP_pressure;BME280_temperature;BME280_humidity;BME280_pressure;Samples;Min_cycle;Max_cycle;Signal;HPM_P1;HPM_P2
2022/12/17 13:06:34;;;;;;;;;53.50;40.00;;;;;4.04;53.56;101815.94;5055693;28;45263;-60
2022/12/17 13:09:25;;;;;;;;;59.50;42.25;;;;;4.10;52.97;101818.63;5045442;28;45408;-61
2022/12/17 13:12:03;;;;;;;;;54.50;35.00;;;;;4.14;53.37;101816.94;5012960;28;45667;-63
2022/12/17 13:14:46;;;;;;;;;59.00;38.75;;;;;4.17;53.09;101812.69;5043057;28;45439;-63
2022/12/17 13:17:14;;;;;;;;;49.50;39.00;;;;;4.22;52.99;101810.19;5051585;28;45791;-64
2022/12/17 13:19:43;;;;;;;;;51.25;34.75;;;;;4.30;52.98;101810.31;5047148;28;45355;-64
2022/12/17 13:22:14;;;;;;;;;53.25;38.50;;;;;4.37;52.55;101802.69;5058468;28;45426;-63
2022/12/17 13:24:44;;;;;;;;;47.50;34.75;;;;;4.40;52.35;101798.38;5043961;28;47323;-63
2022/12/17 13:27:29;;;;;;;;;53.75;38.00;;;;;4.41;52.74;101805.28;5056423;28;45749;-63
2022/12/17 13:29:54;;;;;;;;;46.00;32.50;;;;;4.40;52.21;101806.16;5053625;28;45292;-63
2022/12/17 13:32:27;;;;;;;;;50.50;34.75;;;;;4.40;52.99;101806.16;5033594;28;45339;-63
2022/12/17 13:35:19;;;;;;;;;41.75;35.75;;;;;4.34;52.29;101802.63;5051863;28;45307;-63
2022/12/17 13:37:53;;;;;;;;;48.25;32.50;;;;;4.29;51.68;101806.84;5030151;28;45670;-63
2022/12/17 13:40:43;;;;;;;;;42.75;30.00;;;;;4.27;51.74;101798.19;5027278;28;45386;-63
2022/12/17 13:43:21;;;;;;;;;43.00;29.75;;;;;4.27;52.27;101802.50;5047282;28;45446;-62
2022/12/17 13:45:46;;;;;;;;;30.00;29.50;;;;;4.21;51.62;101800.66;5071202;28;45365;-63
2022/12/17 13:48:26;;;;;;;;;44.25;32.50;;;;;4.16;52.28;101792.84;5031094;28;65347;-62
2022/12/17 13:51:03;;;;;;;;;43.00;33.25;;;;;4.16;52.22;101802.31;5060456;28;45371;-63
2022/12/17 13:53:29;;;;;;;;;39.25;32.75;;;;;4.14;50.87;101797.13;5027206;28;45757;-63
2022/12/17 13:55:56;;;;;;;;;49.00;34.75;;;;;4.11;52.12;101791.03;5059651;28;46162;-63
2022/12/17 13:58:30;;;;;;;;;49.75;34.00;;;;;4.05;52.31;101796.94;5044779;28;45531;-63
2022/12/17 14:01:13;;;;;;;;;44.00;31.75;;;;;4.06;51.98;101787.47;5056717;28;45701;-63
2022/12/17 14:03:42;;;;;;;;;48.50;38.25;;;;;4.03;52.04;101792.59;5042050;28;45390;-63
2022/12/17 14:06:09;;;;;;;;;51.75;36.00;;;;;4.01;52.25;101795.16;5052770;28;47408;-63
2022/12/17 14:08:35;;;;;;;;;38.50;31.25;;;;;3.99;51.88;101805.50;5028901;28;45832;-63
2022/12/17 14:13:46;;;;;;;;;43.75;28.75;;;;;3.95;52.03;101814.06;5032929;28;45495;-63
2022/12/17 14:16:16;;;;;;;;;49.25;34.00;;;;;3.96;52.07;101809.75;5047535;28;45502;-63
2022/12/17 14:18:46;;;;;;;;;54.00;37.00;;;;;3.99;52.13;101804.63;5056525;28;45249;-63
2022/12/17 14:21:12;;;;;;;;;45.50;30.00;;;;;4.02;51.78;101798.63;5034594;28;45414;-63
2022/12/17 14:23:38;;;;;;;;;45.75;34.25;;;;;4.04;52.09;101815.03;5039374;28;59452;-63
2022/12/17 14:26:04;;;;;;;;;50.50;35.00;;;;;4.07;51.73;101816.00;5029732;28;70964;-63
2022/12/17 14:28:35;;;;;;;;;41.50;26.75;;;;;4.08;51.41;101817.72;5049808;28;45374;-63
2022/12/17 14:31:12;;;;;;;;;47.25;32.00;;;;;4.08;51.75;101809.97;5049863;28;45519;-63
2022/12/17 14:33:38;;;;;;;;;42.50;30.00;;;;;4.10;51.52;101812.56;5048082;28;45938;-63
2022/12/17 14:36:08;;;;;;;;;36.25;28.25;;;;;4.10;51.70;101815.16;5056262;28;45823;-63
2022/12/17 14:38:35;;;;;;;;;46.50;32.25;;;;;4.10;51.47;101813.44;5047106;28;45771;-63
2022/12/17 14:43:59;;;;;;;;;45.75;31.00;;;;;4.10;51.47;101826.41;5010827;28;45765;-64
2022/12/17 14:46:24;;;;;;;;;38.25;27.50;;;;;4.07;51.55;101823.78;5050363;28;46232;-64
2022/12/17 14:49:00;;;;;;;;;43.75;29.50;;;;;4.10;51.57;101828.97;5032824;28;45249;-63
2022/12/17 14:51:38;;;;;;;;;44.50;30.75;;;;;4.14;51.51;101827.31;5051982;28;45545;-63
2022/12/17 14:54:12;;;;;;;;;42.25;31.25;;;;;4.16;51.37;101813.56;5035121;28;45407;-63
2022/12/17 14:56:38;;;;;;;;;42.50;35.50;;;;;4.16;51.67;101813.56;5049135;28;46190;-63
2022/12/17 14:59:04;;;;;;;;;43.25;36.50;;;;;4.17;51.43;101798.88;5050493;28;45806;-63
2022/12/17 15:01:29;;;;;;;;;49.50;37.25;;;;;4.21;51.74;101804.97;5037694;28;45646;-63
2022/12/17 15:03:55;;;;;;;;;37.50;31.25;;;;;4.20;51.90;101798.94;5039390;28;45976;-69
2022/12/17 15:06:21;;;;;;;;;27.75;23.50;;;;;4.15;51.58;101801.44;5042766;28;46164;-68
2022/12/17 15:08:48;;;;;;;;;43.75;28.00;;;;;4.14;51.59;101802.31;5041725;28;52715;-67
2022/12/17 15:11:19;;;;;;;;;48.75;34.00;;;;;4.14;51.59;101812.66;5023816;28;45427;-69
2022/12/17 15:13:44;;;;;;;;;48.75;30.25;;;;;4.15;51.51;101809.22;5046417;28;45473;-64
2022/12/17 15:16:10;;;;;;;;;49.75;35.00;;;;;4.13;51.29;101803.13;5030669;28;48002;-64
2022/12/17 15:18:35;;;;;;;;;41.50;33.75;;;;;4.13;51.35;101804.88;5043343;28;45328;-60
2022/12/17 15:21:01;;;;;;;;;43.25;27.50;;;;;4.14;51.54;101812.66;5047194;28;45338;-63
2022/12/17 15:23:27;;;;;;;;;37.25;32.75;;;;;4.15;51.45;101813.53;5047472;28;47526;-62
2022/12/17 15:25:53;;;;;;;;;44.50;36.50;;;;;4.13;50.99;101797.09;5039632;28;46159;-61
2022/12/17 15:28:21;;;;;;;;;45.00;32.00;;;;;4.14;51.07;101785.88;5025592;28;45954;-61
2022/12/17 15:30:47;;;;;;;;;43.75;28.25;;;;;4.13;51.32;101791.91;5045993;28;45633;-62
2022/12/17 15:33:12;;;;;;;;;31.50;28.75;;;;;4.13;50.72;101797.97;5047110;28;45463;-62
2022/12/17 15:35:38;;;;;;;;;50.50;32.75;;;;;4.07;50.75;101808.22;5048710;28;45346;-62
2022/12/17 15:38:04;;;;;;;;;30.75;22.75;;;;;4.07;50.95;101813.41;5048884;28;45415;-61
2022/12/17 15:40:30;;;;;;;;;38.75;28.75;;;;;4.09;50.27;101826.34;5051595;28;45437;-61
2022/12/17 15:43:10;;;;;;;;;39.50;28.00;;;;;4.08;50.47;101835.00;5044435;28;68544;-61
2022/12/17 15:45:44;;;;;;;;;41.00;30.00;;;;;4.05;50.31;101828.03;5032048;28;47268;-57
2022/12/17 15:48:15;;;;;;;;;45.25;29.25;;;;;4.00;50.45;101824.47;5044159;28;45344;-55
2022/12/17 15:50:40;;;;;;;;;44.75;33.75;;;;;3.97;50.37;101827.03;5042180;28;45456;-58
2022/12/17 15:53:06;;;;;;;;;42.50;26.00;;;;;3.92;50.70;101826.09;5025125;28;45536;-58
2022/12/17 15:55:32;;;;;;;;;33.00;24.75;;;;;3.91;50.60;101829.50;5042919;28;46206;-58
2022/12/17 15:57:57;;;;;;;;;45.75;29.50;;;;;3.93;50.80;101840.75;5035338;28;45437;-58
2022/12/17 16:00:23;;;;;;;;;35.00;26.00;;;;;3.94;50.54;101840.78;5052828;28;45530;-56
2022/12/17 16:02:49;;;;;;;;;28.50;26.00;;;;;3.92;50.43;101839.91;5048307;28;45543;-55
2022/12/17 16:05:15;;;;;;;;;37.25;29.25;;;;;3.92;50.49;101851.97;5034804;28;45452;-54
2022/12/17 16:07:42;;;;;;;;;46.50;28.00;;;;;3.85;50.71;101855.28;5046307;28;45510;-53
2022/12/17 16:10:09;;;;;;;;;36.25;22.75;;;;;3.85;50.43;101848.41;5038255;28;45333;-56
2022/12/17 16:12:34;;;;;;;;;33.75;24.75;;;;;3.84;50.62;101843.19;5018055;28;45544;-57
2022/12/17 16:15:00;;;;;;;;;43.75;29.50;;;;;3.83;49.91;101839.72;5059564;28;46560;-57
2022/12/17 16:17:25;;;;;;;;;36.00;28.75;;;;;3.80;50.47;101839.66;5055056;28;45455;-56
2022/12/17 16:19:50;;;;;;;;;42.75;34.75;;;;;3.74;50.45;101849.91;5037236;28;53071;-59
2022/12/17 16:22:16;;;;;;;;;43.25;29.25;;;;;3.69;50.56;101854.13;5053589;28;45570;-62
2022/12/17 16:24:41;;;;;;;;;49.50;34.75;;;;;3.68;50.51;101847.19;5050487;28;57518;-59
2022/12/17 16:27:07;;;;;;;;;38.25;26.75;;;;;3.64;50.28;101832.47;5048966;28;45337;-58
2022/12/17 16:29:32;;;;;;;;;42.25;30.25;;;;;3.57;49.92;101829.72;5044253;28;58729;-59
2022/12/17 16:31:59;;;;;;;;;39.75;25.25;;;;;3.54;50.56;101842.63;5049259;28;64124;-59
2022/12/17 16:34:24;;;;;;;;;39.75;31.00;;;;;3.52;50.61;101835.66;5049230;28;45661;-56
2022/12/17 16:36:49;;;;;;;;;35.00;27.50;;;;;3.53;50.71;101837.44;5049076;28;45235;-59
2022/12/17 16:39:17;;;;;;;;;39.50;24.50;;;;;3.48;50.58;101839.91;5033619;28;45465;-60
2022/12/17 16:41:42;;;;;;;;;38.75;27.25;;;;;3.48;50.46;101852.84;5032035;28;45410;-59
2022/12/17 16:44:08;;;;;;;;;32.75;22.75;;;;;3.45;50.50;101863.13;5052434;28;45474;-60
2022/12/17 16:46:35;;;;;;;;;30.00;22.00;;;;;3.44;50.36;101863.13;5047245;28;45691;-59
2022/12/17 16:49:11;;;;;;;;;28.00;23.00;;;;;3.40;50.57;101855.28;5054356;28;45446;-59
2022/12/17 16:51:37;;;;;;;;;32.50;22.25;;;;;3.37;50.35;101839.69;5051303;28;45522;-59
2022/12/17 16:54:07;;;;;;;;;29.25;23.00;;;;;3.35;49.79;101836.22;5045256;28;45332;-59
2022/12/17 16:56:33;;;;;;;;;32.25;24.25;;;;;3.32;50.40;101835.28;5058132;28;45454;-59
2022/12/17 16:59:01;;;;;;;;;29.75;20.25;;;;;3.31;50.56;101839.59;5017494;28;45430;-59
2022/12/17 17:01:27;;;;;;;;;32.25;25.25;;;;;3.34;50.46;101836.19;5054545;28;45337;-60
2022/12/17 17:03:53;;;;;;;;;28.25;22.00;;;;;3.35;50.71;101831.03;5041990;28;45431;-59
2022/12/17 17:06:19;;;;;;;;;38.25;24.25;;;;;3.39;50.64;101831.97;5056444;28;45240;-59
2022/12/17 17:08:45;;;;;;;;;42.50;29.25;;;;;3.40;50.68;101836.31;5043705;28;45883;-59
2022/12/17 17:11:22;;;;;;;;;30.25;23.25;;;;;3.41;50.57;101845.81;5045496;28;45477;-60
2022/12/17 17:13:48;;;;;;;;;39.50;28.00;;;;;3.39;50.62;101842.31;5045947;28;45489;-60
2022/12/17 17:16:15;;;;;;;;;40.50;33.25;;;;;3.39;50.93;101837.16;5050492;28;45503;-59
2022/12/17 17:18:40;;;;;;;;;50.25;39.50;;;;;3.38;51.01;101819.88;5045231;28;45448;-60
2022/12/17 17:21:33;;;;;;;;;51.25;38.75;;;;;3.38;51.15;101832.81;5047633;28;45486;-60
2022/12/17 17:24:03;;;;;;;;;59.50;43.50;;;;;3.40;51.46;101846.66;5052030;28;45988;-59
2022/12/17 17:26:31;;;;;;;;;61.25;43.00;;;;;3.37;51.24;101844.88;5039967;28;45841;-60
2022/12/17 17:28:56;;;;;;;;;64.25;41.00;;;;;3.36;51.54;101837.06;5043450;28;45418;-60
2022/12/17 17:31:22;;;;;;;;;56.00;40.75;;;;;3.35;51.50;101845.69;5054273;28;45240;-58
2022/12/17 17:33:49;;;;;;;;;60.50;42.75;;;;;3.34;51.73;101849.13;5042612;28;46144;-58
2022/12/17 17:36:16;;;;;;;;;64.50;42.75;;;;;3.32;51.62;101858.56;5045862;28;45327;-58
2022/12/17 17:38:41;;;;;;;;;63.75;45.50;;;;;3.26;51.80;101859.31;5042155;28;45336;-58
2022/12/17 17:41:09;;;;;;;;;56.50;42.50;;;;;3.27;51.97;101855.00;5054403;28;45419;-59
2022/12/17 17:43:35;;;;;;;;;60.25;42.50;;;;;3.28;51.89;101854.19;5046860;28;45811;-58
2022/12/17 17:46:08;;;;;;;;;57.00;41.67;;;;;3.31;51.90;101862.88;5053056;28;59949;-58
2022/12/17 17:48:34;;;;;;;;;65.00;45.50;;;;;3.33;51.97;101863.78;5047244;28;45275;-59
2022/12/17 17:51:30;;;;;;;;;53.50;43.25;;;;;3.30;51.95;101860.25;5051486;28;45289;-59
2022/12/17 17:53:55;;;;;;;;;58.75;40.25;;;;;3.30;51.72;101857.66;5038425;28;45426;-59
2022/12/17 17:56:23;;;;;;;;;61.50;39.25;;;;;3.30;51.67;101852.50;5047439;28;60607;-60
2022/12/17 17:58:51;;;;;;;;;52.00;39.50;;;;;3.29;51.93;101843.84;5047910;28;45508;-58
2022/12/17 18:01:22;;;;;;;;;48.75;36.50;;;;;3.28;51.68;101844.69;5056714;28;45327;-59
2022/12/17 18:03:47;;;;;;;;;58.00;37.25;;;;;3.25;51.90;101836.84;5042376;28;46725;-59
2022/12/17 18:06:13;;;;;;;;;54.00;39.00;;;;;3.28;51.82;101843.81;5048731;28;45343;-59
2022/12/17 18:08:40;;;;;;;;;49.25;38.75;;;;;3.27;51.57;101840.34;5051805;28;45456;-59
2022/12/17 18:11:11;;;;;;;;;46.00;33.75;;;;;3.25;51.77;101831.69;5057989;28;45435;-59
2022/12/17 18:13:55;;;;;;;;;52.75;39.00;;;;;3.27;51.74;101834.31;5048052;28;45409;-60
2022/12/17 18:16:34;;;;;;;;;47.00;32.50;;;;;3.22;51.68;101829.03;5052163;28;46161;-58
2022/12/17 18:19:01;;;;;;;;;45.00;36.75;;;;;3.20;51.90;101821.22;5046420;28;45477;-58
2022/12/17 18:21:28;;;;;;;;;54.25;38.75;;;;;3.15;51.98;101827.16;5053986;28;46115;-58
2022/12/17 18:23:55;;;;;;;;;57.50;43.00;;;;;3.11;52.05;101833.97;5048996;28;45323;-59
2022/12/17 18:26:22;;;;;;;;;47.50;37.75;;;;;3.11;51.91;101840.88;5055229;28;45427;-60
2022/12/17 18:28:47;;;;;;;;;50.00;38.75;;;;;3.12;52.20;101840.03;5051464;28;45318;-59
2022/12/17 18:31:22;;;;;;;;;67.00;46.75;;;;;3.09;52.04;101840.84;5047414;28;45527;-60
2022/12/17 18:33:51;;;;;;;;;47.50;40.00;;;;;3.10;52.20;101831.34;5040761;28;45301;-59
2022/12/17 18:36:19;;;;;;;;;48.50;31.75;;;;;3.12;52.13;101829.69;5037995;28;45344;-59
2022/12/17 18:38:45;;;;;;;;;59.25;42.00;;;;;3.13;52.04;101844.34;5041309;28;45466;-60
2022/12/17 18:44:03;;;;;;;;;56.25;39.25;;;;;3.03;52.38;101859.69;5046745;28;45537;-60
2022/12/17 18:46:29;;;;;;;;;56.00;42.00;;;;;3.03;52.34;101866.56;5048755;28;45453;-59
2022/12/17 18:48:59;;;;;;;;;50.75;38.75;;;;;3.03;51.88;101871.75;5043840;28;45462;-59
2022/12/17 18:51:24;;;;;;;;;50.00;37.75;;;;;3.05;52.03;101870.06;5040004;28;45442;-60
2022/12/17 18:53:51;;;;;;;;;56.25;39.75;;;;;3.03;52.00;101874.34;5049948;28;46422;-59
2022/12/17 18:56:16;;;;;;;;;44.00;36.25;;;;;2.99;51.92;101878.56;5043337;28;45825;-59
2022/12/17 18:58:42;;;;;;;;;68.25;43.00;;;;;2.98;51.73;101873.34;5041486;28;45438;-58
2022/12/17 19:01:18;;;;;;;;;55.00;43.25;;;;;2.93;52.02;101870.66;5046845;28;45400;-58
2022/12/17 19:03:43;;;;;;;;;65.00;42.50;;;;;2.94;51.99;101875.00;5042690;28;47004;-59
2022/12/17 19:06:09;;;;;;;;;62.00;43.75;;;;;2.92;51.85;101870.59;5041105;28;45409;-58
2022/12/17 19:08:35;;;;;;;;;63.00;42.50;;;;;2.91;52.21;101874.06;5047210;28;58541;-59
2022/12/17 19:11:07;;;;;;;;;60.50;42.75;;;;;2.93;51.83;101872.38;5053484;28;45272;-58
2022/12/17 19:13:33;;;;;;;;;60.75;45.00;;;;;2.92;52.13;101868.91;5044621;28;45772;-58
2022/12/17 19:16:10;;;;;;;;;52.00;35.00;;;;;2.87;51.72;101873.09;5052627;28;45387;-59
2022/12/17 19:18:36;;;;;;;;;54.25;40.75;;;;;2.86;51.77;101871.34;5048465;28;45452;-59
2022/12/17 19:21:02;;;;;;;;;57.75;43.00;;;;;2.81;51.91;101873.81;5047331;28;45416;-60
2022/12/17 19:23:28;;;;;;;;;61.50;42.25;;;;;2.77;51.70;101884.06;5049886;28;45323;-60
2022/12/17 19:25:54;;;;;;;;;52.25;41.25;;;;;2.72;51.57;101883.09;5061352;28;45409;-59
2022/12/17 19:28:20;;;;;;;;;45.75;39.75;;;;;2.71;51.95;101881.31;5049218;28;45532;-59
2022/12/17 19:30:45;;;;;;;;;56.75;43.50;;;;;2.69;51.67;101872.66;5051156;28;45521;-59
2022/12/17 19:33:10;;;;;;;;;62.25;44.50;;;;;2.69;51.88;101873.53;5048393;27;60979;-58
2022/12/17 19:35:36;;;;;;;;;63.00;44.50;;;;;2.68;51.68;101879.56;5054667;28;62948;-58
2022/12/17 19:38:01;;;;;;;;;55.25;42.00;;;;;2.69;51.63;101875.25;5055753;28;45421;-57
2022/12/17 19:40:27;;;;;;;;;52.25;41.25;;;;;2.71;51.53;101874.47;5039209;28;59992;-58
2022/12/17 19:42:56;;;;;;;;;51.25;42.25;;;;;2.69;51.49;101868.34;5043384;28;45348;-58
2022/12/17 19:45:21;;;;;;;;;61.50;45.50;;;;;2.70;51.40;101869.25;5053287;28;45833;-58
2022/12/17 19:47:47;;;;;;;;;64.50;45.50;;;;;2.70;51.39;101872.69;5062102;27;45391;-58
2022/12/17 19:50:13;;;;;;;;;62.00;45.25;;;;;2.65;51.50;101864.81;5052686;28;45285;-59
2022/12/17 19:52:38;;;;;;;;;66.25;45.00;;;;;2.60;52.07;101860.38;5044206;28;45533;-58
2022/12/17 19:55:04;;;;;;;;;63.25;46.25;;;;;2.49;52.67;101870.47;5047696;28;45319;-57
2022/12/17 19:57:30;;;;;;;;;61.50;46.25;;;;;2.36;52.65;101871.03;5048104;28;45501;-57
2022/12/17 19:59:55;;;;;;;;;37.50;21.00;;;;;2.23;52.47;101864.66;5047194;28;45241;-63
2022/12/17 20:02:21;;;;;;;;;52.00;38.25;;;;;2.14;52.08;101867.88;5041605;28;46303;-63
2022/12/17 20:04:46;;;;;;;;;52.50;40.00;;;;;2.06;51.89;101878.00;5057251;28;56422;-65
2022/12/17 20:07:11;;;;;;;;;54.00;39.25;;;;;2.00;52.23;101892.44;5051543;28;45497;-64
2022/12/17 20:09:39;;;;;;;;;66.50;45.50;;;;;1.99;52.26;101894.16;5055393;28;53724;-64
2022/12/17 20:12:05;;;;;;;;;56.25;35.25;;;;;2.01;52.24;101900.25;5051024;28;48126;-64
2022/12/17 20:14:30;;;;;;;;;60.00;44.25;;;;;2.04;52.44;101892.59;5051244;28;45414;-67
2022/12/17 20:16:57;;;;;;;;;47.75;37.75;;;;;2.06;52.32;101887.47;5044998;28;45514;-66
2022/12/17 20:19:26;;;;;;;;;70.00;50.25;;;;;2.17;52.28;101904.09;5046200;28;45387;-67
2022/12/17 20:21:52;;;;;;;;;59.75;46.00;;;;;2.23;51.98;101896.53;5047340;28;47341;-67
2022/12/17 20:24:17;;;;;;;;;60.25;44.75;;;;;2.25;52.23;101899.16;5048116;28;45684;-69
2022/12/17 20:26:45;;;;;;;;;67.00;47.00;;;;;2.26;51.81;101919.84;5045710;28;45457;-68
2022/12/17 20:29:10;;;;;;;;;63.25;40.25;;;;;2.25;52.09;101923.28;5048474;28;45499;-68
2022/12/17 20:31:36;;;;;;;;;52.75;40.00;;;;;2.25;52.12;101918.09;5052603;28;45451;-69
2022/12/17 20:34:05;;;;;;;;;60.75;43.75;;;;;2.23;51.45;101917.19;5047753;28;45328;-68
2022/12/17 20:36:31;;;;;;;;;57.50;41.25;;;;;2.18;52.02;101903.28;5050845;28;45595;-71
2022/12/17 20:38:56;;;;;;;;;64.00;42.25;;;;;2.17;52.04;101904.09;5046356;28;45525;-69
2022/12/17 20:41:25;;;;;;;;;53.75;44.00;;;;;2.21;52.06;101911.13;5046098;28;46418;-68
2022/12/17 20:43:51;;;;;;;;;63.25;46.75;;;;;2.26;52.07;101911.22;5048751;28;45505;-68
2022/12/17 20:46:18;;;;;;;;;66.00;46.00;;;;;2.31;52.02;101906.19;5048485;28;45655;-67
2022/12/17 20:48:44;;;;;;;;;66.75;47.75;;;;;2.34;51.68;101907.13;5043936;28;46090;-65
2022/12/17 20:51:19;;;;;;;;;60.00;45.50;;;;;2.35;51.66;101908.00;5043707;28;47305;-65
2022/12/17 20:53:46;;;;;;;;;58.00;41.00;;;;;2.33;51.74;101914.84;5048836;28;45476;-65
2022/12/17 20:56:14;;;;;;;;;62.75;43.25;;;;;2.31;51.95;101916.53;5045000;28;45509;-65
2022/12/17 20:58:40;;;;;;;;;64.25;44.00;;;;;2.29;51.82;101916.47;5043509;28;45679;-65
2022/12/17 21:01:12;;;;;;;;;56.75;43.25;;;;;2.28;52.09;101925.94;5049192;28;45570;-65
2022/12/17 21:03:38;;;;;;;;;54.25;40.75;;;;;2.28;51.80;101925.94;5048944;28;45320;-65
2022/12/17 21:06:10;;;;;;;;;49.50;37.25;;;;;2.27;52.07;101921.59;5043626;28;45569;-65
2022/12/17 21:08:36;;;;;;;;;60.50;42.75;;;;;2.25;51.89;101914.66;5048062;28;45724;-64
2022/12/17 21:11:02;;;;;;;;;52.25;38.75;;;;;2.23;51.98;101918.88;5043218;28;45319;-65
2022/12/17 21:13:30;;;;;;;;;54.50;42.25;;;;;2.21;51.65;101926.63;5042958;28;45572;-65
2022/12/17 21:16:01;;;;;;;;;47.00;38.00;;;;;2.15;51.96;101933.31;5049593;28;45371;-66
2022/12/17 21:18:28;;;;;;;;;63.75;46.25;;;;;2.05;51.93;101927.91;5048813;28;45569;-65
2022/12/17 21:20:57;;;;;;;;;51.50;34.25;;;;;1.98;52.14;101919.94;5054052;28;45347;-65
2022/12/17 21:23:23;;;;;;;;;56.00;43.25;;;;;1.90;52.01;101917.16;5050598;28;47388;-64
2022/12/17 21:25:56;;;;;;;;;55.50;38.75;;;;;1.82;52.14;101916.91;5046876;28;45641;-64
2022/12/17 21:28:22;;;;;;;;;54.00;38.75;;;;;1.75;52.18;101920.16;5044396;28;45796;-63
2022/12/17 21:30:47;;;;;;;;;51.25;39.50;;;;;1.71;52.48;101911.47;5041471;28;66274;-65
2022/12/17 21:33:12;;;;;;;;;56.33;41.00;;;;;1.66;52.37;101904.44;5043452;28;63975;-66
2022/12/17 21:35:38;;;;;;;;;52.50;37.50;;;;;1.65;52.38;101907.84;5049611;28;45392;-67
2022/12/17 21:38:03;;;;;;;;;49.75;39.25;;;;;1.61;52.66;101911.16;5051408;28;58600;-67
2022/12/17 21:40:28;;;;;;;;;45.75;41.00;;;;;1.62;52.62;101902.59;5042275;28;63857;-67
2022/12/17 21:43:02;;;;;;;;;40.00;29.75;;;;;1.58;53.01;101903.34;5045516;28;45797;-67
2022/12/17 21:45:39;;;;;;;;;52.75;37.00;;;;;1.57;52.46;101904.16;5047303;28;45312;-62
2022/12/17 21:48:05;;;;;;;;;52.75;37.00;;;;;1.51;52.57;101904.88;5047603;28;45468;-63
2022/12/17 21:50:30;;;;;;;;;46.00;40.25;;;;;1.44;52.55;101901.22;5040101;28;45472;-62
2022/12/17 21:52:55;;;;;;;;;49.50;32.00;;;;;1.40;52.71;101893.34;5041201;28;45564;-61
2022/12/17 21:55:21;;;;;;;;;56.00;35.25;;;;;1.37;52.67;101886.41;5043709;28;45804;-62
2022/12/17 21:57:46;;;;;;;;;54.75;41.00;;;;;1.35;52.81;101882.03;5035322;28;45478;-63
2022/12/17 22:00:12;;;;;;;;;41.00;34.25;;;;;1.29;52.85;101882.72;5041260;28;58551;-65
2022/12/17 22:02:38;;;;;;;;;51.25;36.25;;;;;1.29;53.11;101880.13;5044072;28;45366;-65
2022/12/17 22:05:03;;;;;;;;;45.75;36.75;;;;;1.27;52.76;101877.50;5043863;28;45255;-64
2022/12/17 22:07:29;;;;;;;;;56.00;44.00;;;;;1.28;52.81;101860.34;5043223;28;45397;-64
2022/12/17 22:09:54;;;;;;;;;66.50;44.00;;;;;1.24;52.68;101861.97;5045422;28;45911;-64
2022/12/17 22:15:04;;;;;;;;;62.00;43.25;;;;;1.25;53.34;101863.69;5047351;28;45559;-64
2022/12/17 22:17:29;;;;;;;;;51.50;36.50;;;;;1.25;52.94;101878.31;5045180;28;46023;-63
2022/12/17 22:19:54;;;;;;;;;55.67;39.33;;;;;1.26;53.00;101877.50;5053384;28;67880;-64
2022/12/17 22:22:20;;;;;;;;;57.50;43.75;;;;;1.26;53.46;101867.19;5038809;28;63847;-64
2022/12/17 22:24:45;;;;;;;;;35.75;27.25;;;;;1.25;53.34;101861.13;5042356;28;58868;-63
2022/12/17 22:27:10;;;;;;;;;44.67;36.00;;;;;1.25;53.13;101874.00;5047556;28;63822;-64
2022/12/17 22:35:04;;;;;;;;;45.75;37.75;;;;;0.99;53.28;101873.22;5046818;28;45463;-63
2022/12/17 22:37:29;;;;;;;;;49.00;33.50;;;;;0.96;53.65;101880.88;5043081;28;45454;-63
2022/12/17 22:39:55;;;;;;;;;50.50;39.25;;;;;0.91;53.32;101875.59;5046968;28;61811;-65
2022/12/17 22:45:05;;;;;;;;;55.00;42.00;;;;;0.89;53.30;101866.94;5044018;28;45378;-65
2022/12/17 22:47:30;;;;;;;;;58.25;41.00;;;;;0.86;53.26;101861.66;5041305;28;45266;-64
2022/12/17 22:49:56;;;;;;;;;58.00;37.67;;;;;0.86;53.18;101858.22;5047641;28;66486;-64
2022/12/17 22:52:21;;;;;;;;;40.00;28.00;;;;;0.81;53.33;101850.34;5043560;28;62093;-62
2022/12/17 22:54:46;;;;;;;;;55.33;42.00;;;;;0.80;53.26;101858.03;5044654;28;55636;-61
2022/12/17 22:57:12;;;;;;;;;49.75;32.00;;;;;0.80;53.23;101858.03;5040089;28;62672;-61
2022/12/17 22:59:37;;;;;;;;;48.50;38.50;;;;;0.77;53.46;101861.41;5040692;28;55401;-62
2022/12/17 23:02:02;;;;;;;;;60.50;42.25;;;;;0.78;53.60;101860.59;5044112;28;59074;-63
2022/12/17 23:04:28;;;;;;;;;47.75;38.50;;;;;0.80;53.38;101853.78;5022587;28;45214;-64
2022/12/17 23:06:53;;;;;;;;;57.00;42.00;;;;;0.82;53.35;101844.38;5047028;28;64067;-65
2022/12/17 23:09:19;;;;;;;;;62.75;42.25;;;;;0.82;53.17;101830.63;5042684;28;49478;-64
2022/12/17 23:11:45;;;;;;;;;56.75;39.50;;;;;0.84;53.26;101827.25;5040518;28;45323;-63
2022/12/17 23:14:11;;;;;;;;;41.25;28.75;;;;;0.80;53.13;101824.53;5040194;28;45560;-64
2022/12/17 23:16:37;;;;;;;;;37.25;20.00;;;;;0.78;53.29;101824.50;5047058;28;45498;-64
2022/12/17 23:19:03;;;;;;;;;54.25;39.50;;;;;0.75;53.09;101824.41;5048103;28;45741;-64
2022/12/17 23:21:29;;;;;;;;;49.75;40.50;;;;;0.69;53.07;101829.34;5045200;28;45960;-65
2022/12/17 23:23:55;;;;;;;;;51.00;42.25;;;;;0.66;53.19;101835.28;5041369;28;45352;-66
2022/12/17 23:26:23;;;;;;;;;55.50;40.25;;;;;0.67;53.37;101828.44;5038876;28;45626;-66
2022/12/17 23:28:55;;;;;;;;;57.25;39.75;;;;;0.69;53.50;101826.78;5043639;28;45465;-66
2022/12/17 23:31:21;;;;;;;;;51.75;41.50;;;;;0.73;53.31;101824.34;5049851;28;45668;-66
2022/12/17 23:33:46;;;;;;;;;52.75;38.75;;;;;0.81;53.48;101834.88;5047014;28;45316;-66
2022/12/17 23:36:15;;;;;;;;;44.25;33.00;;;;;0.82;53.21;101833.22;5047006;28;45319;-66
2022/12/17 23:38:41;;;;;;;;;59.75;43.75;;;;;0.79;52.90;101833.97;5040152;28;46733;-66
2022/12/17 23:41:09;;;;;;;;;54.50;43.25;;;;;0.75;53.16;101832.13;5039578;28;45454;-66
2022/12/17 23:43:34;;;;;;;;;51.50;36.00;;;;;0.75;52.83;101829.56;5043925;28;45462;-66
2022/12/17 23:46:00;;;;;;;;;63.00;42.25;;;;;0.75;53.08;101833.00;5040530;28;45508;-65
2022/12/17 23:48:30;;;;;;;;;57.00;43.00;;;;;0.78;52.96;101834.81;5043432;28;46003;-65
2022/12/17 23:50:57;;;;;;;;;49.75;39.50;;;;;0.82;53.17;101839.22;5039755;28;45857;-65
2022/12/17 23:53:22;;;;;;;;;54.50;41.50;;;;;0.84;53.19;101842.72;5048316;28;45469;-65
2022/12/17 23:55:48;;;;;;;;;63.75;41.00;;;;;0.88;53.04;101841.97;5038639;28;45497;-65
2022/12/17 23:58:13;;;;;;;;;63.00;44.25;;;;;0.92;53.03;101835.22;5039058;28;46255;-64
